createdAt,value
2023-03-16T00:01:26.844Z,99673.72
2023-03-16T00:03:54.807Z,99672.13
2023-03-16T00:06:25.769Z,99662.66
2023-03-16T00:08:58.905Z,99682.66
2023-03-16T00:11:26.976Z,99680.41
2023-03-16T00:13:54.982Z,99683.97
2023-03-16T00:16:22.958Z,99693.28
2023-03-16T00:18:50.909Z,99677.91
2023-03-16T00:21:18.819Z,99681.88
2023-03-16T00:23:48.188Z,99683.06
2023-03-16T00:26:16.153Z,99689.88
2023-03-16T00:28:44.042Z,99695.34
2023-03-16T00:31:14.819Z,99675.66
2023-03-16T00:33:43.974Z,99695.22
2023-03-16T00:36:12.488Z,99704.38
2023-03-16T00:38:45.519Z,99699.59
2023-03-16T00:41:16.943Z,99689.84
2023-03-16T00:43:45.726Z,99678.75
2023-03-16T00:46:15.320Z,99679.44
2023-03-16T00:48:44.907Z,99689.16
2023-03-16T00:51:15.410Z,99696.00
2023-03-16T00:53:44.824Z,99695.09
2023-03-16T00:56:15.165Z,99703.91
2023-03-16T00:58:44.269Z,99706.03
2023-03-16T01:01:14.909Z,99701.44
2023-03-16T01:03:43.261Z,99705.84
2023-03-16T01:06:13.213Z,99713.94
2023-03-16T01:08:42.155Z,99713.75
2023-03-16T01:11:11.984Z,99704.22
2023-03-16T01:13:41.610Z,99709.09
2023-03-16T01:16:11.257Z,99710.72
2023-03-16T01:18:39.264Z,99717.34
2023-03-16T01:21:09.950Z,99712.75
2023-03-16T01:23:38.263Z,99720.69
2023-03-16T01:26:07.880Z,99734.81
2023-03-16T01:28:36.264Z,99721.03
2023-03-16T01:31:08.339Z,99729.66
2023-03-16T01:33:36.851Z,99726.34
2023-03-16T01:36:08.220Z,99721.66
2023-03-16T01:38:36.197Z,99724.53
2023-03-16T01:41:04.828Z,99730.09
2023-03-16T01:43:34.821Z,99738.63
2023-03-16T01:46:28.876Z,99732.59
2023-03-16T01:49:02.084Z,99737.13
2023-03-16T01:51:35.163Z,99738.97
2023-03-16T01:54:07.814Z,99731.53
2023-03-16T01:56:41.800Z,99744.56
2023-03-16T01:59:15.476Z,99747.97
2023-03-16T02:01:45.637Z,99740.22
2023-03-16T02:04:25.229Z,99741.09
2023-03-16T02:06:56.784Z,99742.31
2023-03-16T02:09:26.275Z,99746.91
2023-03-16T02:11:56.228Z,99737.59
2023-03-16T02:14:24.944Z,99745.13
2023-03-16T02:16:55.813Z,99747.69
2023-03-16T02:19:37.170Z,99747.63
2023-03-16T02:22:07.877Z,99748.63
2023-03-16T02:24:36.490Z,99746.03
2023-03-16T02:27:07.396Z,99761.34
2023-03-16T02:29:55.112Z,99765.59
2023-03-16T02:32:24.837Z,99777.94
2023-03-16T02:34:53.119Z,99767.03
2023-03-16T02:37:21.882Z,99772.94
2023-03-16T02:39:49.820Z,99771.69
2023-03-16T02:42:21.950Z,99777.28
2023-03-16T02:44:55.667Z,99774.97
2023-03-16T02:47:29.853Z,99769.53
2023-03-16T02:49:57.845Z,99769.63
2023-03-16T02:52:25.819Z,99781.00
2023-03-16T02:54:53.802Z,99774.75
2023-03-16T02:57:21.731Z,99780.66
2023-03-16T02:59:51.980Z,99784.00
2023-03-16T03:02:19.978Z,99794.22
2023-03-16T03:04:47.980Z,99781.47
2023-03-16T03:07:17.334Z,99790.50
2023-03-16T03:09:45.256Z,99785.97
2023-03-16T03:12:14.305Z,99790.28
2023-03-16T03:14:42.258Z,99790.78
2023-03-16T03:17:13.427Z,99801.38
2023-03-16T03:19:41.703Z,99798.22
2023-03-16T03:22:09.874Z,99801.34
2023-03-16T03:24:37.795Z,99802.25
2023-03-16T03:27:06.499Z,99806.50
2023-03-16T03:29:35.528Z,99817.56
2023-03-16T03:32:03.532Z,99816.09
2023-03-16T03:34:33.393Z,99833.09
2023-03-16T03:37:01.459Z,99823.84
2023-03-16T03:39:29.356Z,99826.03
2023-03-16T03:41:57.226Z,99839.44
2023-03-16T03:44:27.043Z,99843.22
2023-03-16T03:46:55.032Z,99854.88
2023-03-16T03:49:22.966Z,99855.34
2023-03-16T03:51:52.448Z,99863.47
2023-03-16T03:54:20.370Z,99873.06
2023-03-16T03:56:48.296Z,99862.50
2023-03-16T03:59:16.181Z,99869.97
2023-03-16T04:01:44.192Z,99859.88
2023-03-16T04:04:12.265Z,99884.19
2023-03-16T04:06:40.165Z,99872.94
2023-03-16T04:09:10.017Z,99875.91
2023-03-16T04:11:37.940Z,99879.84
2023-03-16T04:14:05.990Z,99883.81
2023-03-16T04:16:34.180Z,99876.22
2023-03-16T04:19:02.116Z,99879.84
2023-03-16T04:21:30.056Z,99880.97
2023-03-16T04:23:57.953Z,99885.47
2023-03-16T04:26:27.273Z,99888.16
2023-03-16T04:28:55.186Z,99895.19
2023-03-16T04:31:23.193Z,99893.50
2023-03-16T04:33:54.656Z,99902.00
2023-03-16T04:36:24.613Z,99915.59
2023-03-16T04:38:52.790Z,99923.06
2023-03-16T04:41:20.981Z,99939.81
2023-03-16T04:43:50.327Z,99935.16
2023-03-16T04:46:18.253Z,99949.47
2023-03-16T04:48:46.296Z,99962.13
2023-03-16T04:51:14.370Z,99961.78
2023-03-16T04:53:42.354Z,99971.66
2023-03-16T04:56:18.126Z,99979.25
2023-03-16T04:58:46.500Z,99979.97
2023-03-16T05:01:17.292Z,99976.47
2023-03-16T05:03:46.004Z,99986.91
2023-03-16T05:06:14.380Z,99993.97
2023-03-16T05:08:42.344Z,99997.53
2023-03-16T05:11:10.602Z,100014.13
2023-03-16T05:13:38.559Z,100026.88
2023-03-16T05:16:07.280Z,100003.88
2023-03-16T05:18:36.681Z,100033.19
2023-03-16T05:21:04.677Z,100024.13
2023-03-16T05:23:32.615Z,100028.03
2023-03-16T05:26:01.180Z,100029.94
2023-03-16T05:28:29.231Z,100037.81
2023-03-16T05:30:57.531Z,100046.31
2023-03-16T05:33:25.709Z,100065.06
2023-03-16T05:35:55.141Z,100053.41
2023-03-16T05:38:23.106Z,100071.97
2023-03-16T05:40:53.238Z,100064.31
2023-03-16T05:43:21.682Z,100071.13
2023-03-16T05:45:49.805Z,100067.47
2023-03-16T05:48:17.724Z,100077.78
2023-03-16T05:50:45.601Z,100081.88
2023-03-16T05:53:15.454Z,100087.22
2023-03-16T05:55:43.377Z,100085.59
2023-03-16T05:58:11.911Z,100091.06
2023-03-16T06:00:40.352Z,100085.19
2023-03-16T06:03:08.367Z,100089.75
2023-03-16T06:05:36.392Z,100090.84
2023-03-16T06:08:04.296Z,100085.75
2023-03-16T06:10:33.690Z,100086.59
2023-03-16T06:13:01.583Z,100086.53
2023-03-16T06:15:30.641Z,100090.53
2023-03-16T06:17:58.579Z,100087.81
2023-03-16T06:20:26.744Z,100083.50
2023-03-16T06:22:54.776Z,100078.16
2023-03-16T06:25:22.684Z,100087.06
2023-03-16T06:27:52.054Z,100085.16
2023-03-16T06:30:20.135Z,100109.72
2023-03-16T06:32:48.123Z,100111.59
2023-03-16T06:35:16.348Z,100107.53
2023-03-16T06:37:44.264Z,100121.53
2023-03-16T06:40:13.478Z,100132.28
2023-03-16T06:42:41.448Z,100136.78
2023-03-16T06:45:13.096Z,100147.09
2023-03-16T06:47:41.358Z,100144.03
2023-03-16T06:50:10.909Z,100153.72
2023-03-16T06:52:38.936Z,100155.75
2023-03-16T06:55:07.931Z,100159.41
2023-03-16T06:57:35.918Z,100166.25
2023-03-16T07:00:04.823Z,100161.25
2023-03-16T07:02:35.828Z,100168.75
2023-03-16T07:05:04.059Z,100166.81
2023-03-16T07:07:32.301Z,100181.06
2023-03-16T07:10:00.261Z,100182.69
2023-03-16T07:12:28.156Z,100188.81
2023-03-16T07:14:56.062Z,100203.50
2023-03-16T07:17:23.944Z,100196.41
2023-03-16T07:19:53.231Z,100206.97
2023-03-16T07:22:22.082Z,100206.72
2023-03-16T07:24:56.028Z,100218.19
2023-03-16T07:27:24.462Z,100222.78
2023-03-16T07:29:53.208Z,100217.78
2023-03-16T07:32:21.726Z,100227.25
2023-03-16T07:34:49.757Z,100220.59
2023-03-16T07:37:25.071Z,100219.16
2023-03-16T07:39:53.645Z,100232.41
2023-03-16T07:42:22.746Z,100232.75
2023-03-16T07:44:51.882Z,100235.75
2023-03-16T07:47:20.002Z,100214.72
2023-03-16T07:49:47.932Z,100237.72
2023-03-16T07:52:15.868Z,100239.09
2023-03-16T07:54:45.160Z,100239.88
2023-03-16T07:57:13.131Z,100243.97
2023-03-16T07:59:41.649Z,100242.22
2023-03-16T08:02:13.685Z,100241.25
2023-03-16T08:04:43.218Z,100252.66
2023-03-16T08:07:11.408Z,100255.94
2023-03-16T08:09:39.506Z,100263.81
2023-03-16T08:12:11.342Z,100260.25
2023-03-16T08:14:39.881Z,100258.50
2023-03-16T08:17:08.595Z,100263.06
2023-03-16T08:19:36.571Z,100261.75
2023-03-16T08:22:04.978Z,100260.25
2023-03-16T08:24:33.508Z,100263.75
2023-03-16T08:27:01.976Z,100263.75
2023-03-16T08:29:31.439Z,100260.25
2023-03-16T08:32:00.066Z,100264.16
2023-03-16T08:34:28.881Z,100264.88
2023-03-16T08:36:56.802Z,100276.06
2023-03-16T08:39:24.932Z,100281.69
2023-03-16T08:41:54.068Z,100287.88
2023-03-16T08:44:23.885Z,100285.91
2023-03-16T08:46:53.562Z,100290.00
2023-03-16T08:49:21.915Z,100298.03
2023-03-16T08:51:49.851Z,100298.44
2023-03-16T08:54:17.812Z,100290.78
2023-03-16T08:56:45.712Z,100307.09
2023-03-16T08:59:23.555Z,100305.28
2023-03-16T09:01:58.726Z,100301.13
2023-03-16T09:04:26.769Z,100305.00
2023-03-16T09:07:10.231Z,100312.72
2023-03-16T09:09:38.493Z,100314.13
2023-03-16T09:12:07.190Z,100314.22
2023-03-16T09:14:37.659Z,100301.31
2023-03-16T09:17:07.773Z,100313.91
2023-03-16T09:19:53.839Z,100321.50
2023-03-16T09:22:23.179Z,100327.13
2023-03-16T09:24:51.423Z,100331.06
2023-03-16T09:27:20.734Z,100336.63
2023-03-16T09:29:49.525Z,100335.38
2023-03-16T09:32:18.803Z,100338.75
2023-03-16T09:34:46.810Z,100347.06
2023-03-16T09:37:16.402Z,100346.69
2023-03-16T09:39:45.718Z,100346.78
2023-03-16T09:42:20.922Z,100352.97
2023-03-16T09:45:05.557Z,100349.28
2023-03-16T09:47:37.168Z,100356.00
2023-03-16T09:50:09.837Z,100346.28
2023-03-16T09:52:45.567Z,100348.78
2023-03-16T09:55:27.288Z,100355.88
2023-03-16T09:57:55.537Z,100351.06
2023-03-16T10:00:26.507Z,100353.97
2023-03-16T10:03:24.407Z,100360.38
2023-03-16T10:05:57.246Z,100358.84
2023-03-16T10:08:26.780Z,100359.88
2023-03-16T10:11:18.766Z,100365.25
2023-03-16T10:13:51.633Z,100362.09
2023-03-16T10:16:23.383Z,100360.09
2023-03-16T10:19:03.177Z,100361.50
2023-03-16T10:21:34.573Z,100370.50
2023-03-16T10:24:05.920Z,100377.59
2023-03-16T10:26:40.923Z,100379.31
2023-03-16T10:29:14.621Z,100383.81
2023-03-16T10:31:43.636Z,100380.19
2023-03-16T10:34:13.212Z,100390.16
2023-03-16T10:36:45.297Z,100381.94
2023-03-16T10:39:14.580Z,100374.25
2023-03-16T10:41:45.302Z,100385.19
2023-03-16T10:44:15.219Z,100384.91
2023-03-16T10:46:48.392Z,100394.00
2023-03-16T10:49:25.654Z,100386.41
2023-03-16T10:51:55.777Z,100386.59
2023-03-16T10:54:30.635Z,100374.34
2023-03-16T10:56:59.094Z,100342.25
2023-03-16T10:59:34.328Z,100385.03
2023-03-16T11:02:05.435Z,100381.41
2023-03-16T11:04:35.701Z,100384.72
2023-03-16T11:07:03.655Z,100381.75
2023-03-16T11:09:34.641Z,100391.34
2023-03-16T11:12:15.539Z,100386.47
2023-03-16T11:14:45.722Z,100387.13
2023-03-16T11:17:18.048Z,100385.19
2023-03-16T11:19:54.525Z,100386.91
2023-03-16T11:22:25.299Z,100386.97
2023-03-16T11:24:58.283Z,100383.22
2023-03-16T11:27:32.162Z,100373.84
2023-03-16T11:30:06.688Z,100380.56
2023-03-16T11:32:38.116Z,100387.47
2023-03-16T11:35:17.725Z,100396.44
2023-03-16T11:37:58.914Z,100395.41
2023-03-16T11:40:38.624Z,100395.59
2023-03-16T11:43:23.389Z,100398.47
2023-03-16T11:46:03.230Z,100397.72
2023-03-16T11:48:37.992Z,100397.59
2023-03-16T11:51:15.634Z,100400.97
2023-03-16T11:53:50.761Z,100403.28
2023-03-16T11:56:30.700Z,100405.22
2023-03-16T11:59:14.405Z,100404.56
2023-03-16T12:02:00.868Z,100405.53
2023-03-16T12:04:46.549Z,100405.88
2023-03-16T12:07:27.462Z,100409.28
2023-03-16T12:10:23.826Z,100419.63
2023-03-16T12:13:07.761Z,100413.63
2023-03-16T12:15:41.970Z,100420.59
2023-03-16T12:18:15.377Z,100418.16
2023-03-16T12:20:50.374Z,100422.53
2023-03-16T12:23:25.403Z,100411.44
2023-03-16T12:25:54.924Z,100426.00
2023-03-16T12:28:25.430Z,100422.66
2023-03-16T12:31:09.390Z,100432.75
2023-03-16T12:33:59.929Z,100430.63
2023-03-16T12:36:51.919Z,100437.50
2023-03-16T12:39:34.253Z,100430.81
2023-03-16T12:42:15.997Z,100442.03
2023-03-16T12:44:49.308Z,100436.69
2023-03-16T12:47:24.014Z,100447.00
2023-03-16T12:49:52.545Z,100450.56
2023-03-16T12:52:20.470Z,100448.25
2023-03-16T12:54:54.962Z,100447.53
2023-03-16T12:57:27.204Z,100451.34
2023-03-16T13:00:00.375Z,100457.75
2023-03-16T13:02:32.217Z,100456.63
2023-03-16T13:05:03.065Z,100459.59
2023-03-16T13:07:33.468Z,100459.81
2023-03-16T13:10:10.140Z,100472.13
2023-03-16T13:12:41.843Z,100471.09
2023-03-16T13:15:28.395Z,100473.13
2023-03-16T13:18:06.867Z,100480.56
2023-03-16T13:20:36.262Z,100482.25
2023-03-16T13:23:22.213Z,100484.59
2023-03-16T13:26:04.386Z,100480.34
2023-03-16T13:28:34.770Z,100493.53
2023-03-16T13:31:04.959Z,100491.94
2023-03-16T13:33:36.902Z,100498.84
2023-03-16T13:36:07.353Z,100493.31
2023-03-16T13:38:36.292Z,100501.69
2023-03-16T13:41:10.732Z,100503.31
2023-03-16T13:43:43.847Z,100506.84
2023-03-16T13:46:15.948Z,100505.66
2023-03-16T13:48:44.279Z,100509.38
2023-03-16T13:51:17.709Z,100505.88
2023-03-16T13:53:46.091Z,100507.69
2023-03-16T13:56:18.815Z,100515.09
2023-03-16T13:58:49.788Z,100514.31
2023-03-16T14:01:26.121Z,100522.84
2023-03-16T14:03:56.546Z,100526.81
2023-03-16T14:06:26.875Z,100527.88
2023-03-16T14:08:58.791Z,100526.84
2023-03-16T14:11:29.533Z,100528.66
2023-03-16T14:13:59.450Z,100534.63
2023-03-16T14:16:29.841Z,100532.28
2023-03-16T14:19:02.163Z,100532.50
2023-03-16T14:21:31.950Z,100532.56
2023-03-16T14:24:02.082Z,100543.44
2023-03-16T14:26:41.134Z,100544.34
2023-03-16T14:29:18.843Z,100550.00
2023-03-16T14:31:46.873Z,100550.56
2023-03-16T14:34:23.694Z,100539.66
2023-03-16T14:36:51.604Z,100552.38
2023-03-16T14:39:22.141Z,100561.84
2023-03-16T14:41:53.546Z,100553.84
2023-03-16T14:44:24.503Z,100566.09
2023-03-16T14:46:56.477Z,100571.41
2023-03-16T14:49:28.317Z,100566.38
2023-03-16T14:52:00.538Z,100571.56
2023-03-16T14:54:29.491Z,100579.50
2023-03-16T14:57:01.423Z,100579.63
2023-03-16T14:59:29.895Z,100580.47
2023-03-16T15:01:59.317Z,100591.78
2023-03-16T15:04:31.821Z,100582.25
2023-03-16T15:07:00.111Z,100593.75
2023-03-16T15:09:37.185Z,100595.94
2023-03-16T15:12:15.298Z,100598.56
2023-03-16T15:15:01.152Z,100608.31
2023-03-16T15:17:29.406Z,100609.34
2023-03-16T15:19:57.369Z,100615.06
2023-03-16T15:22:29.397Z,100617.19
2023-03-16T15:24:58.572Z,100623.66
2023-03-16T15:27:34.367Z,100619.91
2023-03-16T15:30:02.517Z,100627.88
2023-03-16T15:32:30.517Z,100638.03
2023-03-16T15:34:58.762Z,100625.94
2023-03-16T15:37:27.913Z,100626.09
2023-03-16T15:39:55.900Z,100639.78
2023-03-16T15:42:26.044Z,100608.22
2023-03-16T15:44:55.419Z,100648.03
2023-03-16T15:47:23.420Z,100657.56
2023-03-16T15:49:51.354Z,100664.53
2023-03-16T15:52:33.251Z,100664.66
2023-03-16T15:55:07.754Z,100669.34
2023-03-16T15:57:36.812Z,100675.63
2023-03-16T16:00:07.454Z,100678.13
2023-03-16T16:02:35.389Z,100685.19
2023-03-16T16:05:03.551Z,100683.22
2023-03-16T16:07:31.540Z,100691.97
2023-03-16T16:09:59.435Z,100687.47
2023-03-16T16:12:28.735Z,100690.56
2023-03-16T16:14:57.009Z,100698.31
2023-03-16T16:17:48.084Z,100709.47
2023-03-16T16:20:23.984Z,100712.44
2023-03-16T16:22:53.109Z,100713.69
2023-03-16T16:25:23.940Z,100715.28
2023-03-16T16:27:52.215Z,100712.47
2023-03-16T16:30:26.074Z,100718.25
2023-03-16T16:32:58.675Z,100717.88
2023-03-16T16:35:29.615Z,100727.28
2023-03-16T16:37:57.700Z,100731.34
2023-03-16T16:40:26.826Z,100739.81
2023-03-16T16:42:55.465Z,100736.47
2023-03-16T16:45:25.953Z,100736.31
2023-03-16T16:47:56.086Z,100750.59
2023-03-16T16:50:25.625Z,100747.94
2023-03-16T16:52:54.837Z,100750.84
2023-03-16T16:55:24.394Z,100735.03
2023-03-16T16:57:55.962Z,100754.56
2023-03-16T17:00:26.196Z,100757.97
2023-03-16T17:02:58.288Z,100766.56
2023-03-16T17:05:30.223Z,100764.94
2023-03-16T17:08:03.596Z,100776.19
2023-03-16T17:10:31.631Z,100782.00
2023-03-16T17:12:59.641Z,100778.94
2023-03-16T17:15:30.379Z,100782.25
2023-03-16T17:18:05.115Z,100783.16
2023-03-16T17:20:34.464Z,100787.28
2023-03-16T17:23:02.742Z,100791.09
2023-03-16T17:25:32.555Z,100805.75
2023-03-16T17:28:00.512Z,100794.59
2023-03-16T17:30:32.573Z,100810.72
2023-03-16T17:33:11.268Z,100810.94
2023-03-16T17:35:39.250Z,100815.81
2023-03-16T17:38:17.647Z,100820.81
2023-03-16T17:40:46.347Z,100824.94
2023-03-16T17:43:16.196Z,100838.75
2023-03-16T17:45:45.243Z,100836.16
2023-03-16T17:48:17.902Z,100832.13
2023-03-16T17:50:46.862Z,100844.47
2023-03-16T17:53:15.029Z,100844.38
2023-03-16T17:55:43.469Z,100844.31
2023-03-16T17:58:24.011Z,100845.09
2023-03-16T18:00:52.859Z,100846.97
2023-03-16T18:03:25.252Z,100856.84
2023-03-16T18:05:53.372Z,100865.22
2023-03-16T18:08:25.801Z,100869.59
2023-03-16T18:10:55.892Z,100877.78
2023-03-16T18:13:27.370Z,100878.16
2023-03-16T18:15:57.401Z,100880.94
2023-03-16T18:18:29.487Z,100876.97
2023-03-16T18:21:00.464Z,100857.50
2023-03-16T18:23:30.453Z,100878.56
2023-03-16T18:26:02.229Z,100895.09
2023-03-16T18:28:30.752Z,100892.09
2023-03-16T18:30:59.742Z,100895.19
2023-03-16T18:33:31.653Z,100890.91
2023-03-16T18:36:01.653Z,100901.13
2023-03-16T18:38:32.309Z,100915.28
2023-03-16T18:41:02.140Z,100905.44
2023-03-16T18:43:30.842Z,100907.44
2023-03-16T18:45:58.801Z,100919.88
2023-03-16T18:48:30.944Z,100918.06
2023-03-16T18:50:58.985Z,100935.00
2023-03-16T18:53:28.964Z,100934.16
2023-03-16T18:55:57.614Z,100941.06
2023-03-16T18:58:25.996Z,100948.94
2023-03-16T19:00:56.620Z,100931.78
2023-03-16T19:03:29.331Z,100945.88
2023-03-16T19:05:59.306Z,100942.94
2023-03-16T19:08:29.286Z,100936.59
2023-03-16T19:10:59.538Z,100945.53
2023-03-16T19:13:27.949Z,100944.38
2023-03-16T19:15:57.886Z,100941.88
2023-03-16T19:18:26.770Z,100934.81
2023-03-16T19:20:57.241Z,100933.16
2023-03-16T19:23:29.271Z,100948.94
2023-03-16T19:25:58.029Z,100949.56
2023-03-16T19:28:33.871Z,100938.69
2023-03-16T19:31:03.288Z,100954.44
2023-03-16T19:33:31.209Z,100962.81
2023-03-16T19:36:00.548Z,100959.13
2023-03-16T19:38:28.529Z,100959.84
2023-03-16T19:40:58.465Z,100958.41
2023-03-16T19:43:27.889Z,100966.66
2023-03-16T19:45:56.719Z,100969.06
2023-03-16T19:48:32.012Z,100972.81
2023-03-16T19:51:01.932Z,100967.44
2023-03-16T19:53:29.903Z,100978.31
2023-03-16T19:55:57.871Z,100982.44
2023-03-16T19:58:32.136Z,100983.75
2023-03-16T20:01:01.196Z,100988.59
2023-03-16T20:03:29.508Z,100988.44
2023-03-16T20:05:57.466Z,100993.75
2023-03-16T20:08:28.662Z,100997.03
2023-03-16T20:11:03.286Z,100997.44
2023-03-16T20:13:32.024Z,101002.31
2023-03-16T20:16:00.601Z,101002.63
2023-03-16T20:18:29.457Z,101004.97
2023-03-16T20:20:57.410Z,101004.97
2023-03-16T20:23:28.330Z,101008.22
2023-03-16T20:26:02.033Z,101012.00
2023-03-16T20:28:33.030Z,101011.75
2023-03-16T20:31:01.376Z,101010.06
2023-03-16T20:33:29.536Z,101011.81
2023-03-16T20:35:57.545Z,101018.28
2023-03-16T20:38:26.895Z,101013.91
2023-03-16T20:40:56.096Z,101015.03
2023-03-16T20:43:26.511Z,101012.81
2023-03-16T20:45:56.781Z,101014.00
2023-03-16T20:48:26.105Z,101018.03
2023-03-16T20:50:54.566Z,101017.63
2023-03-16T20:53:22.935Z,101023.44
2023-03-16T20:55:54.618Z,101018.78
2023-03-16T20:58:25.558Z,101019.94
2023-03-16T21:00:57.651Z,101017.09
2023-03-16T21:03:27.686Z,101022.97
2023-03-16T21:05:59.623Z,101023.63
2023-03-16T21:08:28.635Z,101030.41
2023-03-16T21:10:59.906Z,101026.81
2023-03-16T21:13:31.450Z,101008.63
2023-03-16T21:16:01.862Z,101028.19
2023-03-16T21:18:30.866Z,101033.75
2023-03-16T21:20:58.966Z,101031.38
2023-03-16T21:23:26.964Z,101031.22
2023-03-16T21:25:58.394Z,101026.34
2023-03-16T21:28:28.916Z,101029.34
2023-03-16T21:30:58.874Z,101034.41
2023-03-16T21:33:31.189Z,101033.09
2023-03-16T21:35:59.807Z,101035.38
2023-03-16T21:38:29.262Z,101031.13
2023-03-16T21:40:59.652Z,101037.47
2023-03-16T21:43:28.794Z,101035.56
2023-03-16T21:45:57.503Z,101042.84
2023-03-16T21:48:28.289Z,101047.78
2023-03-16T21:50:56.302Z,101045.16
2023-03-16T21:53:27.236Z,101043.03
2023-03-16T21:55:57.204Z,101039.66
2023-03-16T21:58:27.243Z,101060.63
2023-03-16T22:00:57.089Z,101054.47
2023-03-16T22:03:33.027Z,101055.19
2023-03-16T22:06:07.007Z,101051.53
2023-03-16T22:08:35.524Z,101052.22
2023-03-16T22:11:04.018Z,101052.09
2023-03-16T22:13:34.624Z,101050.78
2023-03-16T22:16:03.604Z,101059.78
2023-03-16T22:18:35.155Z,101065.09
2023-03-16T22:21:15.235Z,101055.69
2023-03-16T22:23:43.187Z,101053.38
2023-03-16T22:26:17.377Z,101058.34
2023-03-16T22:28:48.313Z,101066.28
2023-03-16T22:31:19.753Z,101063.97
2023-03-16T22:33:48.965Z,101071.66
2023-03-16T22:36:19.786Z,101076.00
2023-03-16T22:38:54.127Z,101076.16
2023-03-16T22:41:21.833Z,101089.84
2023-03-16T22:43:51.290Z,101075.53
2023-03-16T22:46:21.724Z,101089.59
2023-03-16T22:48:49.840Z,101086.84
2023-03-16T22:51:23.797Z,101093.41
2023-03-16T22:53:54.182Z,101094.97
2023-03-16T22:56:23.223Z,101093.34
2023-03-16T22:58:56.287Z,101097.44
2023-03-16T23:01:29.482Z,101100.53
2023-03-16T23:03:57.416Z,101099.41
2023-03-16T23:06:27.012Z,101105.03
2023-03-16T23:08:56.114Z,101106.78
2023-03-16T23:11:27.319Z,101101.88
2023-03-16T23:13:58.173Z,101116.22
2023-03-16T23:16:29.313Z,101115.19
2023-03-16T23:18:57.771Z,101113.28
2023-03-16T23:21:27.951Z,101116.78
2023-03-16T23:24:03.664Z,101113.91
2023-03-16T23:26:32.801Z,101123.34
2023-03-16T23:29:02.162Z,101123.34
2023-03-16T23:31:30.800Z,101126.59
2023-03-16T23:33:58.851Z,101126.75
2023-03-16T23:36:27.427Z,101131.59
2023-03-16T23:38:55.498Z,101137.53
2023-03-16T23:41:25.378Z,101135.09
2023-03-16T23:43:54.208Z,101139.28
2023-03-16T23:46:26.143Z,101133.13
2023-03-16T23:48:57.061Z,101139.00
2023-03-16T23:51:28.656Z,101134.72
2023-03-16T23:53:56.788Z,101148.03
2023-03-16T23:56:26.250Z,101142.63
2023-03-16T23:58:54.370Z,101139.38
